Terminal Aerodrome Forecast
Issued by NWS

Home | Current Version | Previous Version | Text Only | Print | Product List | Glossary On
Versions: 1 2 3 4 5 6 7 8 9 10 11 12 13 14 15 16 17 18 19 20
000
FTUS45 KTFX 171700
TAFGTF
TAF
KGTF 171740Z 1718/1818 21008KT P6SM BKN060
     FM172000 21010KT P6SM SCT250
     FM180900 21014KT P6SM BKN100=

USA.gov is the U.S. government's official web portal to all federal, state and local government web resources and services.